createdAt,value
2022-10-05T00:01:42.831Z,59.82
2022-10-05T00:04:19.964Z,59.60
2022-10-05T00:06:51.002Z,59.54
2022-10-05T00:09:19.343Z,59.64
2022-10-05T00:11:46.722Z,59.55
2022-10-05T00:14:30.888Z,59.72
2022-10-05T00:16:57.985Z,59.83
2022-10-05T00:19:28.404Z,59.53
2022-10-05T00:22:06.831Z,59.92
2022-10-05T00:24:37.001Z,59.69
2022-10-05T00:27:39.852Z,59.79
2022-10-05T00:30:12.631Z,59.76
2022-10-05T00:32:39.891Z,60.10
2022-10-05T00:35:11.703Z,60.02
2022-10-05T00:37:38.653Z,59.84
2022-10-05T00:40:20.563Z,59.84
2022-10-05T00:42:47.293Z,60.00
2022-10-05T00:45:21.548Z,59.87
2022-10-05T00:47:48.123Z,59.92
2022-10-05T00:50:26.885Z,59.79
2022-10-05T00:52:58.799Z,60.09
2022-10-05T00:55:42.551Z,60.23
2022-10-05T00:58:32.525Z,59.73
2022-10-05T01:01:06.316Z,60.16
2022-10-05T01:03:51.616Z,59.85
2022-10-05T01:06:40.513Z,60.11
2022-10-05T01:09:12.350Z,59.98
2022-10-05T01:11:43.949Z,60.31
2022-10-05T01:14:15.967Z,60.08
2022-10-05T01:16:42.888Z,60.18
2022-10-05T01:19:18.840Z,59.92
2022-10-05T01:21:50.737Z,60.05
2022-10-05T01:24:31.731Z,60.29
2022-10-05T01:27:16.881Z,60.14
2022-10-05T01:29:58.755Z,60.36
2022-10-05T01:32:43.176Z,60.30
2022-10-05T01:35:18.811Z,60.31
2022-10-05T01:38:01.328Z,60.32
2022-10-05T01:40:31.392Z,60.60
2022-10-05T01:43:16.608Z,60.36
2022-10-05T01:46:01.795Z,60.43
2022-10-05T01:48:46.584Z,60.28
2022-10-05T01:51:28.087Z,60.50
2022-10-05T01:54:00.718Z,60.66
2022-10-05T01:56:39.962Z,60.56
2022-10-05T01:59:19.103Z,60.41
2022-10-05T02:01:53.196Z,60.45
2022-10-05T02:04:56.480Z,60.63
2022-10-05T02:07:14.779Z,60.83
2022-10-05T02:09:48.692Z,60.89
2022-10-05T02:12:18.921Z,60.76
2022-10-05T02:14:49.550Z,61.05
2022-10-05T02:17:28.619Z,60.80
2022-10-05T02:20:04.301Z,60.65
2022-10-05T02:22:35.007Z,60.74
2022-10-05T02:25:04.112Z,60.98
2022-10-05T02:27:40.999Z,60.62
2022-10-05T02:30:11.635Z,61.12
2022-10-05T02:32:51.428Z,60.88
2022-10-05T02:35:19.502Z,60.76
2022-10-05T02:37:50.446Z,60.71
2022-10-05T02:40:35.669Z,60.87
2022-10-05T02:43:11.738Z,61.12
2022-10-05T02:45:38.358Z,61.13
2022-10-05T02:48:23.841Z,60.92
2022-10-05T02:50:58.479Z,60.77
2022-10-05T02:53:25.678Z,61.10
2022-10-05T02:55:59.782Z,60.76
2022-10-05T02:58:29.240Z,61.25
2022-10-05T03:01:00.668Z,60.93
2022-10-05T03:03:27.346Z,60.98
2022-10-05T03:05:53.928Z,61.23
2022-10-05T03:08:23.662Z,60.98
2022-10-05T03:10:58.198Z,61.21
2022-10-05T03:13:30.817Z,60.92
2022-10-05T03:16:11.225Z,61.28
2022-10-05T03:18:43.613Z,61.16
2022-10-05T03:21:10.244Z,61.30
2022-10-05T03:23:39.670Z,60.95
2022-10-05T03:26:18.580Z,61.18
2022-10-05T03:28:54.142Z,61.32
2022-10-05T03:31:25.922Z,61.37
2022-10-05T03:33:52.530Z,61.35
2022-10-05T03:36:21.900Z,61.19
2022-10-05T03:39:10.888Z,60.90
2022-10-05T03:41:45.448Z,60.87
2022-10-05T03:44:19.832Z,61.12
2022-10-05T03:47:05.535Z,60.80
2022-10-05T03:49:35.295Z,61.15
2022-10-05T03:52:25.645Z,61.06
2022-10-05T03:54:52.208Z,61.11
2022-10-05T03:57:20.767Z,60.92
2022-10-05T03:59:56.551Z,61.00
2022-10-05T04:02:52.674Z,60.90
2022-10-05T04:05:22.046Z,60.68
2022-10-05T04:07:52.291Z,61.00
2022-10-05T04:10:23.790Z,60.79
2022-10-05T04:13:10.612Z,60.65
2022-10-05T04:15:42.748Z,61.19
2022-10-05T04:18:31.211Z,61.23
2022-10-05T04:21:04.326Z,60.89
2022-10-05T04:23:40.352Z,60.85
2022-10-05T04:26:10.705Z,60.87
2022-10-05T04:28:52.448Z,61.07
2022-10-05T04:31:29.445Z,61.26
2022-10-05T04:34:02.283Z,61.43
2022-10-05T04:36:45.451Z,61.19
2022-10-05T04:39:31.415Z,60.96
2022-10-05T04:42:16.657Z,61.26
2022-10-05T04:44:59.129Z,61.09
2022-10-05T04:47:35.528Z,61.27
2022-10-05T04:50:15.694Z,61.44
2022-10-05T04:52:49.892Z,61.27
2022-10-05T04:55:36.820Z,61.17
2022-10-05T04:58:03.409Z,61.46
2022-10-05T05:00:49.248Z,61.02
2022-10-05T05:03:21.852Z,61.14
2022-10-05T05:06:15.988Z,61.51
2022-10-05T05:08:59.904Z,61.26
2022-10-05T05:11:34.971Z,61.45
2022-10-05T05:14:04.600Z,61.41
2022-10-05T05:16:41.730Z,61.34
2022-10-05T05:19:20.604Z,61.55
2022-10-05T05:21:52.335Z,61.37
2022-10-05T05:24:33.487Z,61.59
2022-10-05T05:27:18.704Z,61.65
2022-10-05T05:30:03.998Z,61.37
2022-10-05T05:32:41.743Z,61.71
2022-10-05T05:35:20.631Z,61.68
2022-10-05T05:37:53.838Z,61.77
2022-10-05T05:40:34.836Z,61.82
2022-10-05T05:43:01.412Z,61.70
2022-10-05T05:45:42.145Z,61.88
2022-10-05T05:48:16.471Z,61.93
2022-10-05T05:50:49.707Z,61.84
2022-10-05T05:53:16.363Z,61.82
2022-10-05T05:55:45.862Z,62.13
2022-10-05T05:58:12.466Z,62.07
2022-10-05T06:00:43.165Z,61.59
2022-10-05T06:03:14.111Z,62.17
2022-10-05T06:05:50.128Z,62.02
2022-10-05T06:08:22.532Z,62.21
2022-10-05T06:10:53.247Z,61.82
2022-10-05T06:13:23.459Z,62.12
2022-10-05T06:15:56.272Z,62.31
2022-10-05T06:18:23.390Z,62.15
2022-10-05T06:20:50.084Z,62.14
2022-10-05T06:23:18.544Z,61.89
2022-10-05T06:25:45.137Z,62.16
2022-10-05T06:28:13.030Z,62.48
2022-10-05T06:30:49.096Z,62.59
2022-10-05T06:33:24.488Z,62.53
2022-10-05T06:36:03.555Z,62.21
2022-10-05T06:38:33.092Z,62.38
2022-10-05T06:41:02.815Z,62.17
2022-10-05T06:43:49.678Z,62.36
2022-10-05T06:46:25.874Z,62.08
2022-10-05T06:49:04.644Z,62.17
2022-10-05T06:51:37.488Z,61.92
2022-10-05T06:54:23.050Z,62.83
2022-10-05T06:57:10.723Z,61.67
2022-10-05T06:59:45.881Z,61.31
2022-10-05T07:02:26.905Z,61.29
2022-10-05T07:05:14.141Z,61.49
2022-10-05T07:07:40.828Z,61.04
2022-10-05T07:10:07.511Z,60.63
2022-10-05T07:12:37.277Z,60.48
2022-10-05T07:15:06.850Z,60.45
2022-10-05T07:17:49.975Z,60.09
2022-10-05T07:20:35.101Z,59.91
2022-10-05T07:23:23.276Z,60.12
2022-10-05T07:25:57.688Z,59.74
2022-10-05T07:28:40.145Z,59.76
2022-10-05T07:31:09.754Z,59.32
2022-10-05T07:33:51.820Z,59.29
2022-10-05T07:36:43.159Z,58.98
2022-10-05T07:39:21.113Z,58.72
2022-10-05T07:41:56.435Z,58.49
2022-10-05T07:44:28.184Z,58.00
2022-10-05T07:46:58.626Z,57.79
2022-10-05T07:49:35.786Z,57.80
2022-10-05T07:52:06.541Z,57.96
2022-10-05T07:54:33.100Z,57.78
2022-10-05T07:57:25.762Z,57.97
2022-10-05T08:00:13.874Z,57.81
2022-10-05T08:02:52.494Z,57.81
2022-10-05T08:05:24.197Z,57.41
2022-10-05T08:07:54.550Z,57.52
2022-10-05T08:10:37.846Z,57.87
2022-10-05T08:13:19.841Z,57.69
2022-10-05T08:15:50.513Z,57.77
2022-10-05T08:18:23.087Z,57.69
2022-10-05T08:20:52.759Z,57.74
2022-10-05T08:23:23.967Z,58.18
2022-10-05T08:25:55.672Z,57.90
2022-10-05T08:28:34.470Z,58.03
2022-10-05T08:31:11.948Z,58.18
2022-10-05T08:33:46.217Z,57.76
2022-10-05T08:36:14.483Z,57.85
2022-10-05T08:38:42.030Z,57.98
2022-10-05T08:41:14.946Z,57.94
2022-10-05T08:43:50.552Z,57.91
2022-10-05T08:46:23.150Z,57.88
2022-10-05T08:49:10.157Z,57.79
2022-10-05T08:52:06.120Z,57.69
2022-10-05T08:54:51.463Z,57.85
2022-10-05T08:57:36.248Z,57.79
2022-10-05T09:00:03.065Z,57.69
2022-10-05T09:02:32.508Z,57.74
2022-10-05T09:05:34.847Z,57.95
2022-10-05T09:08:20.971Z,58.06
2022-10-05T09:10:47.710Z,57.58
2022-10-05T09:13:36.200Z,57.76
2022-10-05T09:16:14.885Z,57.80
2022-10-05T09:18:44.682Z,58.17
2022-10-05T09:21:24.324Z,58.33
2022-10-05T09:24:02.766Z,58.25
2022-10-05T09:26:29.609Z,58.08
2022-10-05T09:28:56.267Z,58.21
2022-10-05T09:31:41.288Z,58.41
2022-10-05T09:34:13.723Z,58.36
2022-10-05T09:36:59.106Z,58.47
2022-10-05T09:39:43.388Z,58.54
2022-10-05T09:42:25.445Z,58.70
2022-10-05T09:45:10.628Z,58.53
2022-10-05T09:47:46.014Z,58.25
2022-10-05T09:50:22.987Z,58.63
2022-10-05T09:53:03.865Z,58.36
2022-10-05T09:55:49.009Z,58.24
2022-10-05T09:58:18.502Z,58.13
2022-10-05T10:00:54.226Z,58.33
2022-10-05T10:03:49.120Z,58.31
2022-10-05T10:06:22.010Z,58.05
2022-10-05T10:09:07.055Z,58.22
2022-10-05T10:11:33.659Z,58.26
2022-10-05T10:14:20.351Z,58.14
2022-10-05T10:17:07.046Z,58.07
2022-10-05T10:19:40.307Z,57.95
2022-10-05T10:22:39.640Z,58.10
2022-10-05T10:25:11.561Z,57.69
2022-10-05T10:28:07.330Z,57.77
2022-10-05T10:30:52.537Z,57.86
2022-10-05T10:33:37.391Z,57.68
2022-10-05T10:36:39.551Z,57.98
2022-10-05T10:39:18.148Z,58.04
2022-10-05T10:41:47.544Z,57.61
2022-10-05T10:44:14.224Z,57.66
2022-10-05T10:46:40.995Z,57.68
2022-10-05T10:49:26.345Z,57.83
2022-10-05T10:52:01.910Z,57.83
2022-10-05T10:54:47.041Z,57.72
2022-10-05T10:57:32.052Z,57.63
2022-10-05T11:00:05.911Z,57.96
2022-10-05T11:02:51.997Z,57.87
2022-10-05T11:05:18.598Z,57.66
2022-10-05T11:08:00.236Z,57.95
2022-10-05T11:10:26.836Z,57.93
2022-10-05T11:13:08.469Z,57.81
2022-10-05T11:15:58.305Z,58.05
2022-10-05T11:18:24.939Z,57.71
2022-10-05T11:20:57.613Z,57.61
2022-10-05T11:23:42.963Z,58.15
2022-10-05T11:26:15.468Z,57.93
2022-10-05T11:29:03.855Z,58.11
2022-10-05T11:31:37.911Z,57.87
2022-10-05T11:34:11.695Z,57.87
2022-10-05T11:36:41.160Z,57.91
2022-10-05T11:39:10.816Z,58.31
2022-10-05T11:41:58.279Z,58.31
2022-10-05T11:44:34.210Z,58.38
2022-10-05T11:47:08.701Z,58.59
2022-10-05T11:49:35.355Z,58.60
2022-10-05T11:52:01.988Z,58.24
2022-10-05T11:57:49.883Z,58.50
2022-10-05T12:00:18.531Z,58.58
2022-10-05T12:03:03.691Z,58.89
2022-10-05T12:05:49.125Z,58.64
2022-10-05T12:08:34.271Z,58.96
2022-10-05T12:11:25.888Z,59.18
2022-10-05T12:14:08.318Z,59.32
2022-10-05T12:16:48.445Z,59.25
2022-10-05T12:19:28.625Z,59.18
2022-10-05T12:22:18.775Z,59.31
2022-10-05T12:25:01.764Z,59.73
2022-10-05T12:27:32.230Z,59.80
2022-10-05T12:30:01.834Z,59.92
2022-10-05T12:32:37.029Z,60.06
2022-10-05T12:35:03.567Z,60.33
2022-10-05T12:37:36.750Z,60.38
2022-10-05T12:40:08.295Z,60.74
2022-10-05T12:42:51.412Z,60.54
2022-10-05T12:45:33.125Z,60.35
2022-10-05T12:47:59.669Z,60.73
2022-10-05T12:50:36.998Z,60.67
2022-10-05T12:53:09.601Z,61.22
2022-10-05T12:55:39.239Z,61.20
2022-10-05T12:58:11.683Z,61.10
2022-10-05T13:00:44.031Z,61.44
2022-10-05T13:03:18.465Z,61.49
2022-10-05T13:05:50.570Z,61.43
2022-10-05T13:08:21.305Z,61.54
2022-10-05T13:11:00.008Z,61.29
2022-10-05T13:13:28.512Z,61.88
2022-10-05T13:16:17.265Z,61.64
2022-10-05T13:18:54.570Z,61.57
2022-10-05T13:21:26.785Z,61.76
2022-10-05T13:24:02.687Z,61.84
2022-10-05T13:26:32.737Z,62.08
2022-10-05T13:29:17.864Z,62.15
2022-10-05T13:31:50.510Z,62.10
2022-10-05T13:34:26.352Z,61.99
2022-10-05T13:36:59.370Z,62.18
2022-10-05T13:39:44.462Z,62.70
2022-10-05T13:42:22.903Z,62.50
2022-10-05T13:45:01.571Z,62.89
2022-10-05T13:47:31.799Z,62.63
2022-10-05T13:50:14.114Z,62.86
2022-10-05T13:53:02.329Z,63.14
2022-10-05T13:55:58.122Z,63.08
2022-10-05T13:58:33.874Z,63.12
2022-10-05T14:01:02.384Z,62.99
2022-10-05T14:03:35.244Z,62.96
2022-10-05T14:06:04.177Z,63.05
2022-10-05T14:08:33.627Z,62.43
2022-10-05T14:11:03.196Z,62.40
2022-10-05T14:13:46.886Z,62.40
2022-10-05T14:16:13.665Z,62.50
2022-10-05T14:19:00.735Z,62.51
2022-10-05T14:21:31.111Z,62.73
2022-10-05T14:24:32.076Z,62.77
2022-10-05T14:27:24.811Z,62.43
2022-10-05T14:29:56.503Z,62.59
2022-10-05T14:32:43.415Z,62.37
2022-10-05T14:35:15.027Z,62.44
2022-10-05T14:37:50.635Z,62.72
2022-10-05T14:40:36.525Z,63.04
2022-10-05T14:43:15.608Z,62.98
2022-10-05T14:45:58.826Z,62.73
2022-10-05T14:48:29.362Z,62.16
2022-10-05T14:51:03.547Z,62.51
2022-10-05T14:53:39.561Z,62.20
2022-10-05T14:56:28.869Z,61.94
2022-10-05T14:59:04.465Z,61.72
2022-10-05T15:01:39.419Z,61.63
2022-10-05T15:04:13.438Z,61.56
2022-10-05T15:06:42.137Z,61.26
2022-10-05T15:09:24.792Z,61.03
2022-10-05T15:11:53.088Z,61.28
2022-10-05T15:14:22.575Z,60.93
2022-10-05T15:16:54.106Z,61.05
2022-10-05T15:19:42.603Z,61.36
2022-10-05T15:22:27.015Z,61.36
2022-10-05T15:25:01.839Z,60.99
2022-10-05T15:27:48.240Z,61.40
2022-10-05T15:30:18.335Z,61.34
2022-10-05T15:33:07.789Z,61.18
2022-10-05T15:35:40.668Z,60.63
2022-10-05T15:38:13.362Z,60.77
2022-10-05T15:40:44.757Z,60.43
2022-10-05T15:43:17.646Z,60.83
2022-10-05T15:45:54.044Z,60.45
2022-10-05T15:48:21.110Z,60.44
2022-10-05T15:50:56.072Z,60.23
2022-10-05T15:53:25.931Z,60.12
2022-10-05T15:55:56.235Z,60.21
2022-10-05T15:58:31.455Z,59.92
2022-10-05T16:01:18.713Z,60.08
2022-10-05T16:03:48.411Z,59.80
2022-10-05T16:06:47.823Z,59.78
2022-10-05T16:09:20.238Z,59.64
2022-10-05T16:11:59.236Z,59.64
2022-10-05T16:14:35.567Z,59.21
2022-10-05T16:17:02.239Z,59.20
2022-10-05T16:19:35.975Z,59.07
2022-10-05T16:22:25.645Z,59.24
2022-10-05T16:25:06.358Z,59.11
2022-10-05T16:27:39.179Z,59.19
2022-10-05T16:30:08.816Z,59.18
2022-10-05T16:32:43.211Z,58.92
2022-10-05T16:35:16.916Z,59.08
2022-10-05T16:37:52.898Z,58.73
2022-10-05T16:40:28.711Z,58.75
2022-10-05T16:42:58.468Z,59.05
2022-10-05T16:45:25.127Z,58.64
2022-10-05T16:47:56.629Z,59.06
2022-10-05T16:50:23.330Z,58.71
2022-10-05T16:52:54.822Z,59.25
2022-10-05T16:55:27.228Z,59.17
2022-10-05T16:57:57.059Z,58.98
2022-10-05T17:00:25.246Z,59.16
2022-10-05T17:02:51.837Z,59.23
2022-10-05T17:05:38.765Z,59.03
2022-10-05T17:08:15.302Z,59.07
2022-10-05T17:10:47.764Z,58.58
2022-10-05T17:13:32.816Z,58.70
2022-10-05T17:16:08.340Z,58.55
2022-10-05T17:18:53.598Z,59.02
2022-10-05T17:21:26.491Z,58.42
2022-10-05T17:24:16.043Z,58.37
2022-10-05T17:26:42.626Z,58.50
2022-10-05T17:29:28.246Z,58.58
2022-10-05T17:32:02.186Z,58.50
2022-10-05T17:34:30.517Z,58.17
2022-10-05T17:36:58.364Z,58.15
2022-10-05T17:39:43.703Z,58.47
2022-10-05T17:42:36.477Z,58.02
2022-10-05T17:45:29.254Z,58.40
2022-10-05T17:48:00.627Z,58.20
2022-10-05T17:50:57.920Z,58.42
2022-10-05T17:53:55.128Z,58.41
2022-10-05T17:56:22.715Z,58.30
2022-10-05T17:58:54.769Z,58.01
2022-10-05T18:01:31.965Z,58.24
2022-10-05T18:04:13.657Z,57.72
2022-10-05T18:06:41.793Z,57.69
2022-10-05T18:09:11.718Z,57.79
2022-10-05T18:11:40.479Z,57.63
2022-10-05T18:14:25.397Z,57.86
2022-10-05T18:17:11.201Z,57.81
2022-10-05T18:19:39.618Z,57.80
2022-10-05T18:22:27.592Z,57.85
2022-10-05T18:25:06.080Z,57.77
2022-10-05T18:27:56.088Z,57.16
2022-10-05T18:30:24.113Z,57.00
2022-10-05T18:33:00.950Z,57.00
2022-10-05T18:35:38.132Z,56.88
2022-10-05T18:38:10.469Z,56.83
2022-10-05T18:40:38.833Z,56.74
2022-10-05T18:43:18.154Z,56.75
2022-10-05T18:46:04.399Z,56.72
2022-10-05T18:48:37.840Z,57.05
2022-10-05T18:51:16.617Z,56.84
2022-10-05T18:53:46.684Z,56.49
2022-10-05T18:56:32.104Z,56.39
2022-10-05T18:59:15.325Z,56.86
2022-10-05T19:01:56.850Z,56.54
2022-10-05T19:04:33.426Z,56.62
2022-10-05T19:07:08.891Z,56.32
2022-10-05T19:09:50.336Z,56.35
2022-10-05T19:12:34.432Z,56.19
2022-10-05T19:15:11.314Z,55.99
2022-10-05T19:17:46.807Z,56.14
2022-10-05T19:20:19.638Z,56.38
2022-10-05T19:22:55.513Z,55.98
2022-10-05T19:25:24.969Z,56.21
2022-10-05T19:27:59.555Z,57.00
2022-10-05T19:30:27.614Z,56.75
2022-10-05T19:33:13.685Z,56.62
2022-10-05T19:35:58.430Z,56.40
2022-10-05T19:38:43.556Z,56.32
2022-10-05T19:41:10.111Z,53.31
2022-10-05T19:43:41.562Z,54.00
2022-10-05T19:46:20.896Z,54.38
2022-10-05T19:48:48.821Z,54.94
2022-10-05T19:51:29.645Z,54.87
2022-10-05T19:54:01.250Z,55.16
2022-10-05T19:56:31.646Z,55.55
2022-10-05T19:59:11.648Z,55.25
2022-10-05T20:01:40.507Z,55.36
2022-10-05T20:04:11.068Z,55.50
2022-10-05T20:06:39.874Z,55.04
2022-10-05T20:09:25.053Z,55.43
2022-10-05T20:11:53.073Z,55.63
2022-10-05T20:14:29.942Z,55.95
2022-10-05T20:17:35.321Z,55.50
2022-10-05T20:20:23.033Z,55.74
2022-10-05T20:22:49.910Z,55.74
2022-10-05T20:25:19.240Z,55.33
2022-10-05T20:27:52.630Z,55.88
2022-10-05T20:30:20.288Z,55.79
2022-10-05T20:32:47.445Z,56.24
2022-10-05T20:35:15.911Z,55.90
2022-10-05T20:37:42.630Z,56.55
2022-10-05T20:40:10.488Z,56.80
2022-10-05T20:42:37.261Z,56.18
2022-10-05T20:45:04.358Z,56.53
2022-10-05T20:47:30.981Z,56.55
2022-10-05T20:49:57.621Z,56.80
2022-10-05T20:52:24.203Z,56.47
2022-10-05T20:54:59.115Z,56.49
2022-10-05T20:57:26.856Z,56.34
2022-10-05T20:59:53.479Z,56.17
2022-10-05T21:02:23.838Z,56.01
2022-10-05T21:04:50.513Z,55.88
2022-10-05T21:07:17.959Z,56.08
2022-10-05T21:09:46.679Z,55.64
2022-10-05T21:12:23.932Z,55.80
2022-10-05T21:14:52.827Z,55.49
2022-10-05T21:17:20.275Z,55.19
2022-10-05T21:19:47.172Z,55.60
2022-10-05T21:22:18.933Z,55.55
2022-10-05T21:24:46.008Z,55.38
2022-10-05T21:27:12.779Z,54.99
2022-10-05T21:29:41.300Z,55.14
2022-10-05T21:32:20.819Z,54.85
2022-10-05T21:34:47.633Z,54.92
2022-10-05T21:37:15.588Z,54.97
2022-10-05T21:39:42.166Z,55.37
2022-10-05T21:42:08.751Z,55.44
2022-10-05T21:44:35.429Z,54.90
2022-10-05T21:47:02.122Z,55.17
2022-10-05T21:49:28.918Z,55.09
2022-10-05T21:51:55.741Z,55.05
2022-10-05T21:54:22.636Z,55.09
2022-10-05T21:56:54.613Z,55.37
2022-10-05T21:59:22.585Z,55.48
2022-10-05T22:01:49.328Z,55.55
2022-10-05T22:04:16.160Z,55.59
2022-10-05T22:07:00.237Z,55.03
2022-10-05T22:09:27.979Z,55.29
2022-10-05T22:11:55.193Z,55.12
2022-10-05T22:14:21.796Z,55.13
2022-10-05T22:16:48.903Z,55.18
2022-10-05T22:19:18.825Z,55.30
2022-10-05T22:21:45.468Z,55.19
2022-10-05T22:24:12.091Z,55.47
2022-10-05T22:26:40.034Z,55.51
2022-10-05T22:29:06.718Z,55.24
2022-10-05T22:31:33.409Z,55.29
2022-10-05T22:34:00.004Z,55.09
2022-10-05T22:36:26.977Z,55.41
2022-10-05T22:38:53.591Z,55.09
2022-10-05T22:41:20.294Z,55.15
2022-10-05T22:43:48.808Z,55.09
2022-10-05T22:46:15.677Z,54.84
2022-10-05T22:48:42.581Z,54.76
2022-10-05T22:51:19.723Z,54.70
2022-10-05T22:53:53.007Z,55.02
2022-10-05T22:56:36.907Z,55.04
2022-10-05T22:59:03.599Z,54.92
2022-10-05T23:01:30.226Z,54.90
2022-10-05T23:03:57.456Z,54.79
2022-10-05T23:06:27.000Z,55.04
2022-10-05T23:08:54.326Z,54.84
2022-10-05T23:11:26.085Z,55.27
2022-10-05T23:13:53.767Z,55.17
2022-10-05T23:16:21.722Z,55.27
2022-10-05T23:18:49.728Z,55.23
2022-10-05T23:21:16.891Z,55.14
2022-10-05T23:23:47.445Z,54.94
2022-10-05T23:26:14.144Z,55.05
2022-10-05T23:29:00.928Z,55.40
2022-10-05T23:31:30.043Z,55.46
2022-10-05T23:33:56.875Z,55.23
2022-10-05T23:36:27.940Z,55.34
2022-10-05T23:38:54.501Z,55.22
2022-10-05T23:41:21.322Z,54.93
2022-10-05T23:43:48.297Z,55.40
2022-10-05T23:46:15.145Z,54.98
2022-10-05T23:48:41.808Z,55.29
2022-10-05T23:51:12.974Z,54.92
2022-10-05T23:53:39.612Z,55.29
2022-10-05T23:56:06.358Z,54.98
2022-10-05T23:58:32.962Z,54.73
